AIC428 VOBL-VIDP
Flight info
| Callsign | AIC428 |
|---|---|
| Flight time | N/A |
| Altitude | 41000 |
| Route | LATID7D LATID Q22 HIA/N0489F400 W20 BAVOX BAVOX6G |
| Aircraft | A359/H-SDE2E3GHIJ3J4J5LM1ORWXY/LB1D1 |
Departure
| Time | 2026-05-05 12:23 |
|---|---|
| Airport | Kempegowda International Airport Bengaluru (VOBL) |
Arrival
| Time | N/A |
|---|---|
| Airport | Indira Gandhi International Airport (VIDP) |
| Time | Latitude | Longitude | Altitude | Speed | Heading |
|---|---|---|---|---|---|
| 2026-05-05 11:46 | 13.20173 | 77.70983 | 2973 ft | 0 kts | 180° |
| 2026-05-05 12:08 | 13.20180 | 77.70984 | 2973 ft | 2 kts | 180° |
| 2026-05-05 12:09 | 13.20195 | 77.70984 | 2973 ft | 2 kts | 180° |
| 2026-05-05 12:09 | 13.20210 | 77.70984 | 2973 ft | 2 kts | 180° |
| 2026-05-05 12:09 | 13.20225 | 77.70985 | 2972 ft | 2 kts | 192° |
| 2026-05-05 12:09 | 13.20240 | 77.70989 | 2972 ft | 2 kts | 207° |
| 2026-05-05 12:10 | 13.20253 | 77.70998 | 2971 ft | 2 kts | 219° |
| 2026-05-05 12:10 | 13.20264 | 77.71008 | 2971 ft | 2 kts | 232° |
| 2026-05-05 12:10 | 13.20272 | 77.71022 | 2970 ft | 2 kts | 245° |
| 2026-05-05 12:10 | 13.20278 | 77.71036 | 2970 ft | 2 kts | 258° |
| 2026-05-05 12:11 | 13.20280 | 77.71049 | 2970 ft | 0 kts | 269° |
| 2026-05-05 12:11 | 13.20279 | 77.71041 | 2970 ft | 4 kts | 268° |
| 2026-05-05 12:11 | 13.20279 | 77.70998 | 2971 ft | 4 kts | 270° |
| 2026-05-05 12:11 | 13.20279 | 77.70984 | 2971 ft | 0 kts | 270° |
| 2026-05-05 12:14 | 13.20279 | 77.70981 | 2971 ft | 1 kts | 271° |
| 2026-05-05 12:14 | 13.20280 | 77.70951 | 2973 ft | 6 kts | 273° |
| 2026-05-05 12:15 | 13.20280 | 77.70895 | 2975 ft | 9 kts | 268° |
| 2026-05-05 12:15 | 13.20280 | 77.70810 | 2978 ft | 13 kts | 270° |
| 2026-05-05 12:15 | 13.20282 | 77.70698 | 2982 ft | 17 kts | 271° |
| 2026-05-05 12:15 | 13.20282 | 77.70561 | 2985 ft | 18 kts | 270° |
| 2026-05-05 12:16 | 13.20286 | 77.70441 | 2987 ft | 15 kts | 288° |
| 2026-05-05 12:16 | 13.20341 | 77.70399 | 2988 ft | 7 kts | 349° |
| 2026-05-05 12:16 | 13.20386 | 77.70394 | 2989 ft | 7 kts | 357° |
| 2026-05-05 12:16 | 13.20460 | 77.70393 | 2991 ft | 13 kts | 0° |
| 2026-05-05 12:17 | 13.20529 | 77.70476 | 2990 ft | 21 kts | 88° |
| 2026-05-05 12:17 | 13.20528 | 77.70669 | 2982 ft | 32 kts | 91° |
| 2026-05-05 12:17 | 13.20527 | 77.70921 | 2967 ft | 36 kts | 90° |
| 2026-05-05 12:17 | 13.20524 | 77.71201 | 2952 ft | 39 kts | 91° |
| 2026-05-05 12:18 | 13.20522 | 77.71483 | 2946 ft | 39 kts | 90° |
| 2026-05-05 12:18 | 13.20520 | 77.71738 | 2946 ft | 28 kts | 91° |
| 2026-05-05 12:18 | 13.20517 | 77.71916 | 2946 ft | 22 kts | 91° |
| 2026-05-05 12:18 | 13.20517 | 77.72063 | 2946 ft | 19 kts | 90° |
| 2026-05-05 12:19 | 13.20516 | 77.72184 | 2946 ft | 2 kts | 90° |
| 2026-05-05 12:19 | 13.20516 | 77.72200 | 2946 ft | 3 kts | 90° |
| 2026-05-05 12:19 | 13.20518 | 77.72231 | 2945 ft | 5 kts | 79° |
| 2026-05-05 12:19 | 13.20543 | 77.72266 | 2944 ft | 7 kts | 33° |
| 2026-05-05 12:20 | 13.20601 | 77.72279 | 2943 ft | 8 kts | 359° |
| 2026-05-05 12:20 | 13.20661 | 77.72263 | 2943 ft | 8 kts | 331° |
| 2026-05-05 12:20 | 13.20683 | 77.72202 | 2943 ft | 10 kts | 272° |
| 2026-05-05 12:20 | 13.20685 | 77.72159 | 2943 ft | 0 kts | 271° |
| 2026-05-05 12:22 | 13.20685 | 77.72092 | 2943 ft | 30 kts | 270° |
| 2026-05-05 12:22 | 13.20688 | 77.71650 | 2939 ft | 94 kts | 271° |
| 2026-05-05 12:23 | 13.20697 | 77.70757 | 2974 ft | 150 kts | 271° |
| 2026-05-05 12:23 | 13.20701 | 77.69529 | 3170 ft | 181 kts | 271° |
| 2026-05-05 12:23 | 13.20756 | 77.68169 | 3606 ft | 194 kts | 283° |
| 2026-05-05 12:23 | 13.21301 | 77.66853 | 4063 ft | 210 kts | 308° |
| 2026-05-05 12:24 | 13.22216 | 77.65607 | 4704 ft | 220 kts | 309° |
| 2026-05-05 12:24 | 13.23198 | 77.64291 | 5146 ft | 237 kts | 307° |
| 2026-05-05 12:24 | 13.24143 | 77.62825 | 5491 ft | 254 kts | 303° |
| 2026-05-05 12:24 | 13.25088 | 77.61201 | 5848 ft | 270 kts | 301° |
| 2026-05-05 12:25 | 13.26058 | 77.59472 | 6340 ft | 281 kts | 301° |
| 2026-05-05 12:25 | 13.27047 | 77.57697 | 7031 ft | 284 kts | 301° |
| 2026-05-05 12:25 | 13.28082 | 77.55932 | 7745 ft | 286 kts | 310° |
| 2026-05-05 12:25 | 13.29670 | 77.54707 | 8403 ft | 287 kts | 342° |
| 2026-05-05 12:26 | 13.31663 | 77.54530 | 9125 ft | 287 kts | 10° |
| 2026-05-05 12:26 | 13.33592 | 77.55130 | 9719 ft | 289 kts | 20° |
| 2026-05-05 12:26 | 13.35487 | 77.55853 | 10341 ft | 294 kts | 20° |
| 2026-05-05 12:26 | 13.37480 | 77.56606 | 10795 ft | 309 kts | 20° |
| 2026-05-05 12:27 | 13.39566 | 77.57370 | 11235 ft | 323 kts | 19° |
| 2026-05-05 12:27 | 13.41765 | 77.58157 | 11605 ft | 339 kts | 19° |
| 2026-05-05 12:27 | 13.44078 | 77.58974 | 11945 ft | 356 kts | 19° |
| 2026-05-05 12:27 | 13.46494 | 77.59819 | 12264 ft | 372 kts | 19° |
| 2026-05-05 12:28 | 13.49034 | 77.60703 | 12766 ft | 382 kts | 19° |
| 2026-05-05 12:28 | 13.51627 | 77.61603 | 13463 ft | 386 kts | 19° |
| 2026-05-05 12:28 | 13.54200 | 77.62494 | 14162 ft | 389 kts | 19° |
| 2026-05-05 12:28 | 13.56789 | 77.63390 | 14831 ft | 392 kts | 19° |
| 2026-05-05 12:29 | 13.59415 | 77.64299 | 15486 ft | 396 kts | 19° |
| 2026-05-05 12:29 | 13.62058 | 77.65213 | 16131 ft | 399 kts | 19° |
| 2026-05-05 12:29 | 13.64723 | 77.66135 | 16768 ft | 402 kts | 19° |
| 2026-05-05 12:29 | 13.67436 | 77.67074 | 17402 ft | 406 kts | 19° |
| 2026-05-05 12:30 | 13.70178 | 77.68023 | 18028 ft | 409 kts | 19° |
| 2026-05-05 12:30 | 13.72906 | 77.68967 | 18635 ft | 413 kts | 19° |
| 2026-05-05 12:30 | 13.75682 | 77.69928 | 19235 ft | 416 kts | 19° |
| 2026-05-05 12:30 | 13.78455 | 77.70888 | 19822 ft | 419 kts | 19° |
| 2026-05-05 12:31 | 13.81240 | 77.71853 | 20400 ft | 423 kts | 19° |
| 2026-05-05 12:31 | 13.84078 | 77.72836 | 20977 ft | 426 kts | 19° |
| 2026-05-05 12:31 | 13.86904 | 77.73816 | 21537 ft | 429 kts | 19° |
| 2026-05-05 12:31 | 13.89790 | 77.74816 | 22089 ft | 432 kts | 19° |
| 2026-05-05 12:32 | 13.92664 | 77.75812 | 22621 ft | 436 kts | 19° |
| 2026-05-05 12:32 | 13.95596 | 77.76829 | 23146 ft | 439 kts | 19° |
| 2026-05-05 12:32 | 13.98483 | 77.77831 | 23647 ft | 442 kts | 19° |
| 2026-05-05 12:32 | 14.01451 | 77.78860 | 24139 ft | 445 kts | 19° |
| 2026-05-05 12:33 | 14.04404 | 77.79884 | 24607 ft | 448 kts | 19° |
| 2026-05-05 12:33 | 14.07415 | 77.80930 | 25064 ft | 451 kts | 19° |
| 2026-05-05 12:33 | 14.10429 | 77.81976 | 25495 ft | 454 kts | 19° |
| 2026-05-05 12:33 | 14.13481 | 77.83031 | 25909 ft | 457 kts | 19° |
| 2026-05-05 12:34 | 14.16538 | 77.84087 | 26303 ft | 460 kts | 19° |
| 2026-05-05 12:34 | 14.19590 | 77.85144 | 26677 ft | 463 kts | 20° |
| 2026-05-05 12:34 | 14.22687 | 77.86217 | 27041 ft | 466 kts | 20° |
| 2026-05-05 12:34 | 14.25822 | 77.87306 | 27396 ft | 469 kts | 20° |
| 2026-05-05 12:35 | 14.28960 | 77.88396 | 27743 ft | 472 kts | 20° |
| 2026-05-05 12:35 | 14.32092 | 77.89484 | 28083 ft | 474 kts | 20° |
| 2026-05-05 12:35 | 14.35275 | 77.90590 | 28416 ft | 477 kts | 20° |
| 2026-05-05 12:35 | 14.38431 | 77.91687 | 28734 ft | 479 kts | 20° |
| 2026-05-05 12:36 | 14.41688 | 77.92821 | 29053 ft | 481 kts | 20° |
| 2026-05-05 12:36 | 14.44920 | 77.93886 | 29355 ft | 483 kts | 18° |
| 2026-05-05 12:36 | 14.48231 | 77.94800 | 29650 ft | 486 kts | 15° |
| 2026-05-05 12:36 | 14.51606 | 77.95544 | 29934 ft | 489 kts | 12° |
| 2026-05-05 12:37 | 14.55002 | 77.96149 | 30210 ft | 491 kts | 11° |
| 2026-05-05 12:37 | 14.58389 | 77.96718 | 30558 ft | 491 kts | 11° |
| 2026-05-05 12:37 | 14.61802 | 77.97285 | 30971 ft | 489 kts | 11° |
| 2026-05-05 12:37 | 14.65228 | 77.97856 | 31385 ft | 488 kts | 11° |
| 2026-05-05 12:38 | 14.68632 | 77.98426 | 31772 ft | 487 kts | 11° |
| 2026-05-05 12:38 | 14.72004 | 77.98994 | 32139 ft | 486 kts | 11° |
| 2026-05-05 12:38 | 14.75423 | 77.99571 | 32504 ft | 485 kts | 11° |
| 2026-05-05 12:38 | 14.78692 | 78.00124 | 32846 ft | 484 kts | 11° |
| 2026-05-05 12:39 | 14.82004 | 78.00684 | 33188 ft | 483 kts | 11° |
| 2026-05-05 12:39 | 14.85340 | 78.01249 | 33523 ft | 482 kts | 11° |
| 2026-05-05 12:39 | 14.88659 | 78.01812 | 33844 ft | 482 kts | 11° |
| 2026-05-05 12:39 | 14.92014 | 78.02382 | 34156 ft | 481 kts | 11° |
| 2026-05-05 12:40 | 14.95394 | 78.02956 | 34587 ft | 477 kts | 11° |
| 2026-05-05 12:40 | 14.98701 | 78.03518 | 35053 ft | 473 kts | 11° |
| 2026-05-05 12:40 | 15.01951 | 78.04069 | 35405 ft | 471 kts | 11° |
| 2026-05-05 12:40 | 15.05255 | 78.04631 | 35682 ft | 471 kts | 11° |
| 2026-05-05 12:41 | 15.08557 | 78.05192 | 35934 ft | 471 kts | 11° |
| 2026-05-05 12:41 | 15.11846 | 78.05749 | 36193 ft | 471 kts | 11° |
| 2026-05-05 12:41 | 15.15090 | 78.06297 | 36451 ft | 470 kts | 11° |
| 2026-05-05 12:41 | 15.18386 | 78.06853 | 36696 ft | 470 kts | 11° |
| 2026-05-05 12:42 | 15.21675 | 78.07411 | 36923 ft | 470 kts | 11° |
| 2026-05-05 12:42 | 15.24921 | 78.07964 | 37136 ft | 470 kts | 11° |
| 2026-05-05 12:42 | 15.28196 | 78.08521 | 37344 ft | 470 kts | 11° |
| 2026-05-05 12:42 | 15.31514 | 78.09086 | 37547 ft | 470 kts | 11° |
| 2026-05-05 12:43 | 15.34783 | 78.09643 | 37741 ft | 470 kts | 11° |
| 2026-05-05 12:43 | 15.38067 | 78.10194 | 37929 ft | 470 kts | 10° |
| 2026-05-05 12:43 | 15.41322 | 78.10726 | 38111 ft | 470 kts | 10° |
| 2026-05-05 12:43 | 15.44596 | 78.11256 | 38286 ft | 470 kts | 10° |
| 2026-05-05 12:44 | 15.47893 | 78.11790 | 38459 ft | 470 kts | 10° |
| 2026-05-05 12:44 | 15.51141 | 78.12318 | 38628 ft | 470 kts | 10° |
| 2026-05-05 12:44 | 15.54458 | 78.12859 | 38794 ft | 470 kts | 10° |
| 2026-05-05 12:44 | 15.57743 | 78.13397 | 38946 ft | 470 kts | 10° |
| 2026-05-05 12:45 | 15.60992 | 78.13927 | 39074 ft | 471 kts | 10° |
| 2026-05-05 12:45 | 15.64297 | 78.14468 | 39188 ft | 472 kts | 10° |
| 2026-05-05 12:45 | 15.67570 | 78.15003 | 39297 ft | 472 kts | 10° |
| 2026-05-05 12:45 | 15.70891 | 78.15547 | 39406 ft | 473 kts | 10° |
| 2026-05-05 12:46 | 15.74208 | 78.16090 | 39511 ft | 474 kts | 10° |
| 2026-05-05 12:46 | 15.77517 | 78.16632 | 39614 ft | 474 kts | 10° |
| 2026-05-05 12:46 | 15.80819 | 78.17173 | 39715 ft | 475 kts | 10° |
| 2026-05-05 12:46 | 15.84129 | 78.17715 | 39817 ft | 475 kts | 10° |
| 2026-05-05 12:47 | 15.90633 | 78.18781 | 40014 ft | 476 kts | 10° |
| 2026-05-05 12:47 | 15.97039 | 78.19834 | 40190 ft | 477 kts | 10° |
| 2026-05-05 12:48 | 16.03370 | 78.20875 | 40347 ft | 478 kts | 10° |